Turtlepoint, Pennsylvania
Current Conditions -  °F | °C
As of 8:04 AM on Thursday 30 Oct 2014 (Local Time) from KBFD Reporting Station
Overcast Overcast  
Wind Chill: 35°   Ceiling: 3700
Heat Index: 39°   Visibility: 10mi
Dew Point: 36°   Wind: 6mph
Humidity: 89%   Direction: 290°WNW
Pressure: 30.02"   Gusts: NA
Location:  41.87°N, 78.34°W
Report Text: KBFD 301204Z AUTO 29005KT 10SM FEW016 SCT022 OVC037 04/02 A3002 RMK AO2 RAE01 P0000 T00390022
Loading
Personal Weather Stations






























Interactive Weather Map
Tropical Storm Tracking
New forecast layout! Learn more

10-Day Weather Forecast

Advertisements
Track Severe Weather on mobile